Time;durP1;ratioP1;P1;durP2;ratioP2;P2;SDS_P1;SDS_P2;PMS_P1;PMS_P2;Temp;Humidity;BMP_temperature;BMP_pressure;BME280_temperature;BME280_humidity;BME280_pressure;Samples;Min_cycle;Max_cycle;Signal;HPM_P1;HPM_P2
2023/06/16 00:01:41;;;;;;;;;37.80;32.60;;;;;14.67;84.65;98836.13;5034971;28;9039;-80
2023/06/16 00:04:12;;;;;;;;;36.00;32.20;;;;;14.29;86.65;98828.28;5072162;28;8851;-81
2023/06/16 00:06:42;;;;;;;;;31.20;30.40;;;;;14.24;87.06;98823.22;5071692;28;8985;-80
2023/06/16 00:09:13;;;;;;;;;32.80;29.80;;;;;14.25;86.38;98830.22;5104227;28;8955;-81
2023/06/16 00:11:42;;;;;;;;;34.00;30.80;;;;;14.46;84.63;98833.59;5071412;28;8862;-82
2023/06/16 00:14:11;;;;;;;;;35.80;31.40;;;;;14.15;86.48;98831.59;5072274;28;8882;-81
2023/06/16 00:16:40;;;;;;;;;35.80;33.00;;;;;14.03;86.30;98834.78;5044208;28;8850;-82
2023/06/16 00:19:09;;;;;;;;;29.80;29.20;;;;;14.18;85.50;98835.84;5070653;28;8850;-82
2023/06/16 00:21:41;;;;;;;;;31.20;30.40;;;;;14.18;85.87;98830.56;5086469;28;8870;-80
2023/06/16 00:24:10;;;;;;;;;29.40;28.00;;;;;14.29;85.16;98823.00;5093826;28;8831;-80
2023/06/16 00:26:39;;;;;;;;;34.20;32.00;;;;;14.32;85.58;98822.84;5090928;28;8852;-81
2023/06/16 00:29:08;;;;;;;;;34.20;32.40;;;;;14.34;84.80;98818.34;5107694;28;8864;-81
2023/06/16 00:31:37;;;;;;;;;32.40;30.40;;;;;14.86;82.92;98817.59;5079514;28;8884;-80
2023/06/16 00:34:07;;;;;;;;;34.60;32.80;;;;;14.93;82.83;98816.34;5053713;28;8873;-78
2023/06/16 00:36:37;;;;;;;;;34.00;32.60;;;;;14.62;83.87;98814.34;5068856;28;8850;-80
2023/06/16 00:39:07;;;;;;;;;30.20;28.60;;;;;14.44;84.83;98814.31;5052249;28;8853;-80
2023/06/16 00:41:36;;;;;;;;;32.80;31.60;;;;;14.76;83.71;98803.13;5015832;28;8840;-79
2023/06/16 00:44:06;;;;;;;;;32.00;30.20;;;;;14.64;84.28;98808.06;4989186;28;8965;-80
2023/06/16 00:46:37;;;;;;;;;30.40;29.20;;;;;14.65;83.99;98807.09;4984390;28;8883;-81
2023/06/16 00:49:07;;;;;;;;;35.20;31.40;;;;;14.68;84.01;98801.69;4960414;28;8894;-80
2023/06/16 00:51:37;;;;;;;;;36.20;31.60;;;;;14.41;84.86;98803.91;4944638;28;8845;-80
2023/06/16 00:54:08;;;;;;;;;32.20;31.20;;;;;14.60;83.86;98802.97;5009105;28;8895;-80
2023/06/16 00:56:38;;;;;;;;;34.20;32.40;;;;;14.37;85.23;98798.81;5009211;28;8853;-80
2023/06/16 00:59:07;;;;;;;;;38.20;33.40;;;;;14.58;84.70;98803.03;5009121;28;8982;-83
2023/06/16 01:01:39;;;;;;;;;37.60;32.80;;;;;14.64;84.12;98793.94;4991013;28;8863;-80
2023/06/16 01:04:09;;;;;;;;;33.80;32.20;;;;;14.81;82.85;98790.50;4976436;28;8873;-81
2023/06/16 01:06:51;;;;;;;;;36.00;32.40;;;;;14.97;81.89;98793.25;4978370;28;8939;-81
2023/06/16 01:09:31;;;;;;;;;37.60;34.00;;;;;14.98;81.73;98787.88;5002580;28;8955;-81
2023/06/16 01:12:11;;;;;;;;;30.80;30.40;;;;;15.00;81.96;98785.13;5035712;28;8854;-82
2023/06/16 01:14:53;;;;;;;;;30.80;30.20;;;;;15.60;80.00;98772.28;5039683;28;8854;-82
2023/06/16 01:17:24;;;;;;;;;37.80;33.60;;;;;15.21;80.04;98784.03;5074861;28;8870;-83
2023/06/16 01:20:07;;;;;;;;;39.60;33.80;;;;;15.03;81.03;98779.69;5069537;28;8935;-80
2023/06/16 01:22:53;;;;;;;;;34.00;31.80;;;;;15.13;81.28;98777.41;5070655;28;9663;-81
2023/06/16 01:25:24;;;;;;;;;33.40;31.00;;;;;15.42;79.75;98781.19;5069328;28;8913;-81
2023/06/16 01:27:57;;;;;;;;;32.60;30.20;;;;;15.34;79.03;98780.72;5070398;28;8838;-82
2023/06/16 01:30:28;;;;;;;;;29.60;29.40;;;;;15.25;80.00;98777.63;5069648;28;8934;-82
2023/06/16 01:32:59;;;;;;;;;29.80;29.60;;;;;15.04;80.85;98773.47;5069150;28;8893;-80
2023/06/16 01:35:29;;;;;;;;;34.40;32.00;;;;;15.22;80.55;98777.78;5069136;28;8874;-80
2023/06/16 01:38:02;;;;;;;;;36.00;31.40;;;;;15.58;78.33;98770.59;5003580;28;8980;-81
2023/06/16 01:40:33;;;;;;;;;32.60;30.40;;;;;15.44;79.24;98768.72;5074989;28;8850;-80
2023/06/16 01:43:03;;;;;;;;;36.00;32.20;;;;;16.01;77.82;98766.47;5085909;28;9914;-82
2023/06/16 01:45:33;;;;;;;;;38.00;33.80;;;;;15.73;77.45;98768.97;5053953;28;9015;-80
2023/06/16 01:48:03;;;;;;;;;34.00;32.40;;;;;15.63;77.80;98769.44;5068282;28;8882;-80
2023/06/16 01:50:33;;;;;;;;;36.00;32.80;;;;;15.30;79.53;98765.94;5089311;28;8849;-81
2023/06/16 01:53:02;;;;;;;;;33.60;30.40;;;;;14.91;81.09;98764.44;5071308;28;8935;-80
2023/06/16 01:55:34;;;;;;;;;37.60;32.00;;;;;14.71;82.40;98768.06;5101846;28;8858;-79
2023/06/16 01:58:07;;;;;;;;;37.20;32.40;;;;;14.63;82.63;98756.06;5085523;28;8850;-80
2023/06/16 02:00:41;;;;;;;;;33.60;32.00;;;;;14.41;83.87;98764.25;5072211;28;8863;-80
2023/06/16 02:03:20;;;;;;;;;35.20;33.20;;;;;14.43;83.94;98756.22;5102435;28;8850;-80
2023/06/16 02:05:51;;;;;;;;;35.20;30.20;;;;;14.48;83.81;98755.06;5067296;28;8862;-81
2023/06/16 02:08:25;;;;;;;;;34.60;32.20;;;;;14.67;83.40;98747.03;5067992;28;8850;-81
2023/06/16 02:10:55;;;;;;;;;32.20;30.80;;;;;14.51;84.40;98746.13;5070704;28;8842;-80
2023/06/16 02:13:25;;;;;;;;;33.60;31.20;;;;;14.57;83.82;98756.38;5052949;28;8850;-79
2023/06/16 02:15:54;;;;;;;;;30.20;29.60;;;;;14.54;84.54;98747.75;5073989;28;8885;-80
2023/06/16 02:18:27;;;;;;;;;18.20;18.20;;;;;14.46;84.84;98756.06;5084390;28;9680;-81
2023/06/16 02:20:56;;;;;;;;;34.40;32.60;;;;;14.14;87.13;98762.94;5066807;28;9043;-81
2023/06/16 02:23:26;;;;;;;;;37.20;34.00;;;;;14.42;85.33;98752.72;5084956;28;8834;-81
2023/06/16 02:25:56;;;;;;;;;32.20;30.00;;;;;14.48;85.49;98751.56;5048994;28;8849;-81
2023/06/16 02:28:25;;;;;;;;;34.60;32.00;;;;;14.16;87.04;98751.34;5067048;28;8833;-80
2023/06/16 02:30:54;;;;;;;;;39.80;35.80;;;;;13.99;88.36;98751.31;5064765;28;8943;-82
2023/06/16 02:33:23;;;;;;;;;35.80;33.40;;;;;14.03;88.87;98744.94;5046088;28;9711;-81
2023/06/16 02:35:52;;;;;;;;;40.40;35.80;;;;;14.12;88.43;98746.28;5046813;28;10193;-80
2023/06/16 02:38:21;;;;;;;;;37.40;34.20;;;;;14.00;88.78;98753.03;5046724;28;9741;-82
2023/06/16 02:40:50;;;;;;;;;35.20;32.80;;;;;13.92;89.38;98753.38;5046839;28;8850;-81
2023/06/16 02:43:20;;;;;;;;;41.60;35.40;;;;;13.98;89.57;98739.88;5013612;28;8866;-81
2023/06/16 02:45:50;;;;;;;;;38.60;34.40;;;;;14.01;89.72;98749.44;5044254;28;8968;-83
2023/06/16 02:48:19;;;;;;;;;35.20;33.00;;;;;13.99;89.63;98744.22;5013835;28;9719;-81
2023/06/16 02:50:52;;;;;;;;;41.00;35.40;;;;;13.87;90.84;98742.19;5030371;28;8867;-84
2023/06/16 02:53:24;;;;;;;;;36.80;34.00;;;;;13.88;91.58;98730.69;5030462;28;8832;-81
2023/06/16 02:55:55;;;;;;;;;45.20;37.00;;;;;13.83;91.91;98737.97;5063771;28;8960;-81
2023/06/16 02:58:28;;;;;;;;;40.40;34.40;;;;;13.80;92.27;98738.09;5010613;28;9609;-83
2023/06/16 03:00:57;;;;;;;;;40.00;36.00;;;;;13.77;92.88;98728.53;4984104;28;8846;-84
2023/06/16 03:03:51;;;;;;;;;43.20;38.00;;;;;13.79;92.75;98742.53;4962450;28;8859;-85
2023/06/16 03:06:34;;;;;;;;;40.20;36.20;;;;;13.70;93.30;98737.66;4976130;28;8904;-86
2023/06/16 03:09:14;;;;;;;;;39.50;36.00;;;;;13.67;93.70;98746.56;4991128;28;8855;-85
2023/06/16 03:11:43;;;;;;;;;39.80;35.60;;;;;13.55;94.63;98744.50;4990634;28;8848;-85
2023/06/16 03:14:14;;;;;;;;;42.00;36.20;;;;;13.76;93.28;98744.44;5007092;28;8910;-86
2023/06/16 03:16:44;;;;;;;;;43.80;37.40;;;;;13.63;93.75;98746.78;5003053;28;8858;-86
2023/06/16 03:19:18;;;;;;;;;37.20;33.80;;;;;13.91;92.41;98740.25;4956692;28;8881;-86
2023/06/16 03:21:48;;;;;;;;;39.60;35.00;;;;;13.81;92.96;98745.97;4988042;28;8846;-85
2023/06/16 03:24:22;;;;;;;;;45.25;37.50;;;;;13.46;95.42;98748.41;4972581;28;9982;-87
2023/06/16 03:26:51;;;;;;;;;43.20;38.00;;;;;13.59;95.55;98740.78;4969282;28;8903;-87
2023/06/16 03:29:31;;;;;;;;;41.20;36.60;;;;;13.79;93.89;98746.91;4954846;28;8861;-87
2023/06/16 03:32:00;;;;;;;;;46.00;39.60;;;;;13.94;93.37;98745.38;4973761;28;8842;-86
2023/06/16 03:34:30;;;;;;;;;40.80;36.40;;;;;13.91;93.58;98750.81;4991542;28;9612;-87
2023/06/16 03:37:00;;;;;;;;;45.60;38.00;;;;;13.87;93.41;98752.75;4974941;28;8870;-87
2023/06/16 03:39:37;;;;;;;;;46.75;38.00;;;;;13.86;93.53;98758.94;4990585;28;8963;-86
2023/06/16 03:42:08;;;;;;;;;44.00;35.00;;;;;13.97;93.59;98748.72;5033716;28;8857;-87
2023/06/16 03:44:40;;;;;;;;;35.00;33.00;;;;;13.65;95.17;98751.06;5079047;28;8864;-89
2023/06/16 03:47:11;;;;;;;;;40.60;35.00;;;;;14.03;93.40;98759.00;5033271;28;8845;-87
2023/06/16 03:49:41;;;;;;;;;44.80;37.60;;;;;13.81;94.24;98747.75;5034685;28;8861;-88
2023/06/16 03:52:11;;;;;;;;;47.75;40.00;;;;;13.74;95.13;98751.59;5032601;28;8898;-88
2023/06/16 03:54:40;;;;;;;;;48.00;39.00;;;;;13.67;95.66;98751.00;5050450;28;8856;-86
2023/06/16 03:57:09;;;;;;;;;45.00;38.50;;;;;13.77;95.44;98751.44;5039134;28;8845;-85
2023/06/16 03:59:41;;;;;;;;;47.25;39.50;;;;;13.76;94.59;98742.66;5086148;28;8947;-87
2023/06/16 04:02:11;;;;;;;;;43.25;37.75;;;;;13.52;95.87;98744.63;5035800;28;8855;-86
2023/06/16 04:04:47;;;;;;;;;44.75;38.75;;;;;13.55;95.41;98749.78;4995093;28;8859;-87
2023/06/16 04:07:21;;;;;;;;;46.25;39.00;;;;;13.63;93.99;98754.72;4960630;28;8885;-86
2023/06/16 04:09:53;;;;;;;;;36.80;33.80;;;;;13.69;93.71;98754.44;4963039;28;9111;-85
2023/06/16 04:12:22;;;;;;;;;43.60;37.60;;;;;13.56;93.96;98750.63;4973265;28;8872;-86
2023/06/16 04:14:54;;;;;;;;;42.40;37.00;;;;;13.53;93.40;98761.38;4955189;28;8923;-86
2023/06/16 04:17:23;;;;;;;;;40.00;34.00;;;;;13.40;93.91;98761.06;4934580;28;9599;-87
2023/06/16 04:19:53;;;;;;;;;37.00;33.40;;;;;13.44;93.88;98767.91;4991880;28;9838;-86
2023/06/16 04:22:23;;;;;;;;;33.80;32.60;;;;;13.28;93.39;98779.16;4959297;28;8884;-87
2023/06/16 04:24:55;;;;;;;;;54.60;43.60;;;;;13.41;92.29;98773.31;4967706;28;8864;-86
2023/06/16 04:27:28;;;;;;;;;43.20;36.80;;;;;13.29;93.34;98780.00;4986420;28;8892;-86
2023/06/16 04:30:05;;;;;;;;;28.00;26.80;;;;;12.98;93.33;98777.88;4978699;28;8876;-86
2023/06/16 04:32:38;;;;;;;;;31.20;30.60;;;;;12.90;94.29;98778.16;5009531;28;8890;-86
2023/06/16 04:35:12;;;;;;;;;36.80;33.20;;;;;12.96;94.87;98777.06;5019284;28;8841;-85
2023/06/16 04:37:43;;;;;;;;;33.40;30.80;;;;;12.90;94.86;98783.44;5046928;28;8901;-85
2023/06/16 04:40:13;;;;;;;;;37.20;31.80;;;;;13.08;94.38;98781.81;5028700;28;8983;-84
2023/06/16 04:42:43;;;;;;;;;24.80;22.80;;;;;13.10;95.00;98785.25;4991147;28;8864;-86
2023/06/16 04:45:15;;;;;;;;;40.00;35.80;;;;;13.15;94.29;98780.63;4994213;28;8865;-84
2023/06/16 04:47:47;;;;;;;;;38.40;34.60;;;;;13.33;93.59;98786.00;5063310;28;8882;-85
2023/06/16 04:50:17;;;;;;;;;34.80;32.20;;;;;13.00;94.86;98787.41;5016839;28;8887;-86
2023/06/16 04:52:49;;;;;;;;;37.00;33.80;;;;;12.96;95.11;98790.25;5029204;28;8983;-86
2023/06/16 04:55:20;;;;;;;;;36.40;33.80;;;;;12.83;96.07;98790.75;5029717;28;8844;-85
2023/06/16 04:57:50;;;;;;;;;40.80;34.00;;;;;12.68;95.87;98788.75;5017615;28;8930;-85
2023/06/16 05:00:22;;;;;;;;;35.20;33.80;;;;;12.68;96.63;98781.69;5007438;28;8921;-82
2023/06/16 05:02:51;;;;;;;;;39.60;33.80;;;;;12.75;96.53;98782.31;5027466;28;9625;-82
2023/06/16 05:05:21;;;;;;;;;35.80;33.20;;;;;12.85;95.57;98778.38;5008475;28;8827;-82
2023/06/16 05:07:50;;;;;;;;;29.80;27.20;;;;;12.88;94.68;98783.53;5002048;28;9724;-81
2023/06/16 05:10:19;;;;;;;;;42.40;36.00;;;;;12.58;96.59;98779.50;4995250;28;8854;-82
2023/06/16 05:12:48;;;;;;;;;34.40;33.20;;;;;12.47;96.93;98775.53;4956476;28;8887;-82
2023/06/16 05:15:18;;;;;;;;;35.20;30.20;;;;;12.39;98.36;98787.31;5003154;28;8872;-79
2023/06/16 05:17:49;;;;;;;;;39.20;34.00;;;;;12.57;96.20;98785.72;5004529;28;8888;-79
2023/06/16 05:20:18;;;;;;;;;37.00;34.00;;;;;12.84;95.73;98776.66;4971474;28;8860;-79
2023/06/16 05:22:47;;;;;;;;;34.60;33.00;;;;;12.71;95.74;98773.66;5003826;28;8857;-79
2023/06/16 05:25:17;;;;;;;;;33.80;31.60;;;;;12.50;97.57;98771.91;4987388;28;8841;-79
2023/06/16 05:27:46;;;;;;;;;42.00;33.20;;;;;12.33;97.38;98784.03;5042439;28;8858;-77
2023/06/16 05:30:15;;;;;;;;;36.00;32.00;;;;;12.50;97.10;98775.44;5061349;28;8947;-78
2023/06/16 05:32:45;;;;;;;;;46.20;38.00;;;;;12.43;97.74;98781.88;5046885;28;8908;-79
2023/06/16 05:35:16;;;;;;;;;35.20;32.40;;;;;12.35;98.78;98783.94;5030043;28;8884;-78
2023/06/16 05:37:45;;;;;;;;;38.00;34.40;;;;;12.53;97.69;98777.91;5059912;28;8860;-77
2023/06/16 05:40:14;;;;;;;;;37.40;34.20;;;;;12.33;98.65;98784.03;5067190;28;8832;-77
2023/06/16 05:42:43;;;;;;;;;45.60;37.80;;;;;12.38;97.91;98782.97;5098744;28;8855;-77
2023/06/16 05:45:12;;;;;;;;;43.20;36.00;;;;;12.34;99.60;98788.34;5065231;28;8888;-76
2023/06/16 05:47:41;;;;;;;;;42.40;36.80;;;;;12.37;98.36;98790.00;5066300;28;8852;-77
2023/06/16 05:50:11;;;;;;;;;38.80;34.20;;;;;12.37;97.85;98818.13;5067193;28;9562;-78
2023/06/16 05:52:42;;;;;;;;;37.40;33.40;;;;;12.36;97.74;98785.66;5067109;28;8871;-77
2023/06/16 05:55:11;;;;;;;;;36.00;34.20;;;;;12.51;97.42;98795.56;5050323;28;8844;-77
2023/06/16 05:57:47;;;;;;;;;45.75;38.25;;;;;12.48;97.61;98795.69;5054391;28;8847;-77
2023/06/16 06:00:17;;;;;;;;;42.20;35.20;;;;;12.51;97.55;98807.91;5048915;28;8824;-80
2023/06/16 06:02:53;;;;;;;;;39.40;35.20;;;;;12.68;96.16;98810.69;5053877;28;8844;-81
2023/06/16 06:05:29;;;;;;;;;43.60;37.60;;;;;12.64;96.88;98808.28;5030944;28;8888;-81
2023/06/16 06:08:00;;;;;;;;;38.20;34.40;;;;;12.52;96.86;98813.13;5015006;28;8905;-79
2023/06/16 06:10:30;;;;;;;;;42.00;35.50;;;;;12.64;96.86;98808.28;5062747;28;8827;-79
2023/06/16 06:13:02;;;;;;;;;36.50;32.75;;;;;12.76;96.34;98805.09;5070717;28;8878;-79
2023/06/16 06:15:32;;;;;;;;;46.00;39.50;;;;;12.67;95.19;98813.41;5067034;28;8954;-79
2023/06/16 06:18:06;;;;;;;;;45.20;38.60;;;;;12.74;95.95;98812.22;5081902;28;8872;-79
2023/06/16 06:20:39;;;;;;;;;38.40;34.40;;;;;12.76;96.04;98806.91;5049702;28;8860;-79
2023/06/16 06:23:10;;;;;;;;;42.60;36.00;;;;;12.28;96.88;98814.97;5081064;28;9729;-80
2023/06/16 06:25:42;;;;;;;;;37.00;32.60;;;;;12.29;97.11;98823.72;5107788;27;8872;-80
2023/06/16 06:28:13;;;;;;;;;35.80;31.40;;;;;12.33;97.10;98823.56;5088259;28;9002;-76
2023/06/16 06:30:42;;;;;;;;;44.00;39.20;;;;;12.35;97.44;98820.81;5083549;27;8899;-78
2023/06/16 06:33:11;;;;;;;;;43.20;37.60;;;;;12.15;97.17;98837.44;5078185;28;9648;-78
2023/06/16 06:35:40;;;;;;;;;41.20;35.60;;;;;12.19;97.80;98823.22;5052404;28;8842;-80
2023/06/16 06:38:11;;;;;;;;;46.80;38.00;;;;;12.19;97.44;98835.56;5086087;28;8909;-83
2023/06/16 06:40:42;;;;;;;;;47.25;41.00;;;;;12.28;97.59;98824.66;5116524;27;8839;-79
2023/06/16 06:43:12;;;;;;;;;40.80;35.00;;;;;12.23;97.29;98818.69;5067837;28;8834;-79
2023/06/16 06:45:49;;;;;;;;;44.75;38.75;;;;;12.12;98.11;98832.28;5089563;28;8840;-81
2023/06/16 06:48:20;;;;;;;;;40.60;35.60;;;;;12.21;97.66;98817.91;5118591;27;8838;-81
2023/06/16 06:50:54;;;;;;;;;44.60;38.60;;;;;12.25;98.00;98822.13;5084189;28;8850;-81
2023/06/16 06:53:24;;;;;;;;;48.40;40.40;;;;;12.15;97.94;98834.81;5067141;28;8874;-80
2023/06/16 06:55:53;;;;;;;;;47.00;39.25;;;;;12.24;98.29;98821.28;5066984;28;8850;-79
2023/06/16 06:58:22;;;;;;;;;42.00;37.60;;;;;12.13;98.68;98821.69;5067821;28;8831;-78
2023/06/16 07:00:51;;;;;;;;;44.80;38.40;;;;;12.24;98.24;98828.31;5072545;28;8850;-81
2023/06/16 07:03:20;;;;;;;;;46.80;39.20;;;;;12.08;98.98;98825.41;5086920;28;8840;-78
2023/06/16 07:05:49;;;;;;;;;46.25;38.50;;;;;12.20;98.62;98818.81;5069600;28;8835;-79
2023/06/16 07:08:18;;;;;;;;;48.00;40.80;;;;;12.19;98.95;98820.59;5101769;27;8858;-80
2023/06/16 07:10:49;;;;;;;;;42.25;36.75;;;;;12.31;98.53;98822.72;5079375;28;8897;-80
2023/06/16 07:13:18;;;;;;;;;49.75;41.50;;;;;12.44;97.99;98832.78;5068024;28;8891;-81
2023/06/16 07:15:47;;;;;;;;;48.50;40.50;;;;;12.58;96.99;98829.59;5082722;28;8873;-80
2023/06/16 07:18:15;;;;;;;;;35.20;34.00;;;;;12.39;97.36;98830.34;5088132;28;8836;-79
2023/06/16 07:20:45;;;;;;;;;45.50;39.00;;;;;12.51;97.23;98829.84;5085891;28;8851;-80
2023/06/16 07:23:13;;;;;;;;;47.50;40.75;;;;;12.49;97.41;98831.69;5056889;28;8865;-80
2023/06/16 07:25:42;;;;;;;;;47.75;39.25;;;;;12.52;97.13;98830.69;5080502;28;8864;-79
2023/06/16 07:28:12;;;;;;;;;41.25;36.00;;;;;12.67;96.09;98837.13;5067001;28;8847;-80
2023/06/16 07:30:41;;;;;;;;;46.75;39.75;;;;;12.85;95.45;98832.91;5101790;28;8854;-81
2023/06/16 07:33:10;;;;;;;;;47.25;39.00;;;;;12.83;95.54;98832.09;5050088;28;8854;-79
2023/06/16 07:35:39;;;;;;;;;42.80;37.80;;;;;12.84;94.15;98846.97;5077682;28;8870;-80
2023/06/16 07:38:08;;;;;;;;;40.80;36.60;;;;;12.80;94.81;98827.78;5074184;28;8863;-83
2023/06/16 07:40:37;;;;;;;;;41.20;35.40;;;;;12.76;93.58;98841.19;5088267;28;8952;-81
2023/06/16 07:43:05;;;;;;;;;34.60;33.60;;;;;12.66;93.17;98838.91;5109587;28;8854;-83
2023/06/16 07:45:36;;;;;;;;;41.20;35.40;;;;;12.46;94.25;98839.72;5100929;28;9597;-80
2023/06/16 07:48:07;;;;;;;;;38.40;35.20;;;;;12.66;94.68;98843.34;5018551;28;9588;-81
2023/06/16 07:50:37;;;;;;;;;37.00;34.40;;;;;12.52;93.60;98854.41;5086488;28;8863;-80
2023/06/16 07:53:06;;;;;;;;;40.60;36.00;;;;;12.76;93.24;98849.09;5068182;28;8976;-80
2023/06/16 07:55:35;;;;;;;;;41.60;36.00;;;;;12.62;93.90;98844.38;5057530;28;8834;-78
2023/06/16 07:58:04;;;;;;;;;40.40;34.40;;;;;12.82;93.32;98848.81;5099374;28;8852;-84
2023/06/16 08:00:33;;;;;;;;;38.00;35.40;;;;;12.73;93.67;98855.31;5091191;28;8859;-82
2023/06/16 08:03:04;;;;;;;;;41.00;37.20;;;;;12.82;93.04;98851.47;5075130;28;8851;-82
2023/06/16 08:05:33;;;;;;;;;36.80;33.80;;;;;13.08;92.59;98850.41;5076705;28;8858;-83
2023/06/16 08:08:02;;;;;;;;;43.40;37.40;;;;;13.07;91.46;98859.22;5089560;28;8884;-82
2023/06/16 08:10:32;;;;;;;;;42.00;36.40;;;;;12.88;92.83;98852.13;5105952;27;8943;-85
2023/06/16 08:13:01;;;;;;;;;42.40;37.40;;;;;12.82;93.61;98854.94;5085448;28;8863;-85
2023/06/16 08:15:30;;;;;;;;;40.20;34.80;;;;;12.91;93.87;98856.41;5092643;28;8933;-83
2023/06/16 08:17:59;;;;;;;;;38.00;34.80;;;;;12.94;92.84;98858.91;5062035;28;8865;-88
2023/06/16 08:20:32;;;;;;;;;49.00;40.50;;;;;12.99;92.36;98866.63;5025675;28;9024;-88
2023/06/16 08:23:01;;;;;;;;;46.00;40.40;;;;;12.95;92.30;98865.03;5072332;28;8865;-86
2023/06/16 08:25:30;;;;;;;;;41.20;35.20;;;;;13.04;92.81;98859.38;4998189;28;8840;-86
2023/06/16 08:28:00;;;;;;;;;48.00;40.25;;;;;13.24;92.31;98854.13;5031864;28;8890;-88
2023/06/16 08:30:29;;;;;;;;;48.75;41.75;;;;;13.07;93.27;98853.97;4983577;28;8869;-84
2023/06/16 08:32:58;;;;;;;;;46.50;38.50;;;;;13.16;92.59;98858.84;5027848;28;8889;-84
2023/06/16 08:35:30;;;;;;;;;45.40;38.60;;;;;13.14;91.96;98855.41;5047359;28;8867;-84
2023/06/16 08:37:59;;;;;;;;;44.60;38.00;;;;;13.09;92.03;98858.28;5032021;28;8865;-84
2023/06/16 08:40:29;;;;;;;;;38.00;35.20;;;;;13.10;93.88;98854.69;5046418;28;9090;-85
2023/06/16 08:42:58;;;;;;;;;39.40;36.20;;;;;12.94;92.67;98866.84;5022003;28;8859;-87
2023/06/16 08:45:28;;;;;;;;;40.20;36.60;;;;;12.95;93.44;98865.91;5026359;28;8848;-87
2023/06/16 08:47:58;;;;;;;;;42.20;36.60;;;;;12.96;93.56;98861.47;5046573;28;8877;-85
2023/06/16 08:50:30;;;;;;;;;41.60;37.60;;;;;13.19;93.32;98869.28;5053149;28;8854;-85
2023/06/16 08:53:00;;;;;;;;;39.60;35.00;;;;;13.05;93.39;98861.09;4992497;28;8842;-85
2023/06/16 08:55:32;;;;;;;;;45.20;39.80;;;;;13.05;94.45;98864.59;4956650;28;8994;-86
2023/06/16 08:58:03;;;;;;;;;49.50;40.25;;;;;12.96;95.32;98869.38;5031744;28;8873;-85
2023/06/16 09:00:34;;;;;;;;;48.25;39.00;;;;;13.20;93.39;98868.34;5017801;28;8946;-87
2023/06/16 09:03:08;;;;;;;;;48.00;40.00;;;;;13.30;94.40;98866.19;5017498;28;8856;-86
2023/06/16 09:05:39;;;;;;;;;45.75;39.50;;;;;13.30;93.88;98869.69;5052356;28;8881;-83
2023/06/16 09:08:11;;;;;;;;;44.20;37.80;;;;;13.27;93.76;98864.53;5013984;28;8870;-85
2023/06/16 09:11:07;;;;;;;;;41.40;35.40;;;;;13.13;93.81;98861.63;4937984;28;9617;-87
2023/06/16 09:13:41;;;;;;;;;49.40;40.00;;;;;13.39;94.78;98864.91;4951281;28;9600;-83
2023/06/16 09:16:16;;;;;;;;;41.20;36.00;;;;;13.44;94.52;98869.06;4936482;28;8866;-85
2023/06/16 09:19:09;;;;;;;;;43.00;37.20;;;;;13.20;92.77;98867.50;4886560;29;8890;-84
2023/06/16 09:21:42;;;;;;;;;44.20;38.40;;;;;13.49;94.75;98868.91;4864756;29;8874;-85
2023/06/16 09:24:16;;;;;;;;;44.60;37.00;;;;;13.41;94.50;98871.00;4906955;29;8913;-84
2023/06/16 09:26:45;;;;;;;;;40.40;35.00;;;;;13.53;94.07;98875.75;4916262;29;8863;-87
2023/06/16 09:29:23;;;;;;;;;38.00;34.40;;;;;13.31;93.30;98868.75;4931863;28;8923;-80
2023/06/16 09:31:53;;;;;;;;;40.80;36.00;;;;;13.44;93.83;98870.88;4967727;28;8887;-80
2023/06/16 09:34:22;;;;;;;;;39.80;36.20;;;;;13.65;94.24;98875.19;5005035;28;8871;-81
2023/06/16 09:36:53;;;;;;;;;41.40;35.00;;;;;13.80;93.88;98873.69;5007376;28;8862;-81
2023/06/16 09:39:23;;;;;;;;;44.80;38.80;;;;;13.86;93.50;98868.13;5010365;28;8902;-81
2023/06/16 09:41:54;;;;;;;;;46.50;39.25;;;;;13.97;93.49;98872.91;5030195;28;8854;-83
2023/06/16 09:44:24;;;;;;;;;41.00;34.20;;;;;13.76;92.53;98879.16;5064731;28;8962;-81
2023/06/16 09:46:54;;;;;;;;;42.40;36.20;;;;;13.66;93.15;98882.22;5074867;28;8889;-82
2023/06/16 09:49:25;;;;;;;;;42.20;36.60;;;;;13.77;93.16;98880.84;5077935;28;8872;-80
2023/06/16 09:51:57;;;;;;;;;45.75;38.75;;;;;13.95;92.72;98876.56;5088795;28;8844;-81
2023/06/16 09:54:28;;;;;;;;;49.50;42.00;;;;;14.18;92.28;98878.16;5088872;28;8868;-81
2023/06/16 09:56:59;;;;;;;;;51.50;43.00;;;;;14.21;92.00;98881.50;5087034;28;8859;-80
2023/06/16 09:59:28;;;;;;;;;41.75;36.00;;;;;14.11;92.13;98877.59;5057993;28;8912;-83
2023/06/16 10:01:58;;;;;;;;;47.00;39.25;;;;;14.22;92.48;98877.06;5068496;28;8877;-83
2023/06/16 10:04:31;;;;;;;;;44.75;38.50;;;;;14.24;92.01;98875.22;5068504;28;8885;-81
2023/06/16 10:07:07;;;;;;;;;51.50;43.25;;;;;14.47;91.90;98869.72;5086972;28;8840;-81
2023/06/16 10:09:44;;;;;;;;;47.50;39.25;;;;;14.38;90.99;98877.22;5085798;28;8879;-82
2023/06/16 10:12:34;;;;;;;;;49.00;42.00;;;;;14.53;92.14;98873.84;5080408;28;8976;-82
2023/06/16 10:15:04;;;;;;;;;47.25;40.00;;;;;14.37;92.21;98889.56;5086127;28;8880;-79
2023/06/16 10:17:36;;;;;;;;;50.50;42.25;;;;;14.52;92.15;98876.56;5081861;28;8855;-82
2023/06/16 10:20:10;;;;;;;;;45.25;39.00;;;;;14.66;92.33;98882.91;5066566;28;8923;-81
2023/06/16 10:22:41;;;;;;;;;48.50;41.50;;;;;14.59;92.62;98880.63;5109763;27;8859;-80
2023/06/16 10:25:10;;;;;;;;;53.75;45.50;;;;;14.67;92.45;98881.94;5076002;28;8847;-82
2023/06/16 10:27:41;;;;;;;;;48.25;40.50;;;;;14.98;91.46;98875.22;5053572;28;8863;-82
2023/06/16 10:30:16;;;;;;;;;50.00;42.00;;;;;15.03;91.28;98878.47;5077993;28;8848;-80
2023/06/16 10:32:47;;;;;;;;;52.50;44.50;;;;;15.23;91.36;98876.63;5086194;28;8860;-80
2023/06/16 10:35:17;;;;;;;;;50.00;42.00;;;;;15.03;91.77;98880.25;5080813;28;8859;-78
2023/06/16 10:37:52;;;;;;;;;51.00;42.75;;;;;15.03;91.26;98885.53;5070944;28;8847;-76
2023/06/16 10:40:21;;;;;;;;;50.75;42.75;;;;;15.10;92.20;98889.59;5084987;28;8852;-78
2023/06/16 10:42:58;;;;;;;;;46.50;39.25;;;;;15.18;90.97;98884.78;5048600;28;8839;-80
2023/06/16 10:45:29;;;;;;;;;52.75;43.75;;;;;14.99;90.81;98897.22;5066298;28;8873;-78
2023/06/16 10:47:59;;;;;;;;;48.00;40.00;;;;;15.01;90.93;98885.63;5067183;28;8865;-79
2023/06/16 10:50:41;;;;;;;;;44.00;36.75;;;;;15.02;89.52;98889.16;5080336;28;8862;-78
2023/06/16 10:53:14;;;;;;;;;47.00;38.00;;;;;15.08;89.71;98888.84;5078574;28;9585;-79
2023/06/16 10:55:44;;;;;;;;;41.25;35.50;;;;;15.03;89.97;98885.53;5051557;28;9684;-81
2023/06/16 10:58:26;;;;;;;;;29.40;29.20;;;;;14.97;87.61;98886.72;5068562;28;8847;-78
2023/06/16 11:01:08;;;;;;;;;37.20;33.00;;;;;14.78;86.37;98884.13;5119528;27;9041;-74
2023/06/16 11:03:38;;;;;;;;;45.00;37.25;;;;;14.87;88.80;98885.47;5084611;28;8938;-75
2023/06/16 11:06:07;;;;;;;;;34.00;32.40;;;;;14.91;86.00;98894.97;5065709;28;8855;-77
2023/06/16 11:08:52;;;;;;;;;40.00;34.80;;;;;14.99;87.36;98889.28;5087109;28;8866;-76
2023/06/16 11:11:21;;;;;;;;;38.40;33.60;;;;;14.93;87.00;98885.16;5069693;28;8871;-76
2023/06/16 11:13:50;;;;;;;;;36.40;32.00;;;;;14.81;86.28;98878.69;5084891;28;9642;-76
2023/06/16 11:16:19;;;;;;;;;36.60;33.80;;;;;15.00;86.33;98890.97;5031339;28;8881;-76
2023/06/16 11:18:51;;;;;;;;;34.20;32.20;;;;;15.20;85.00;98880.25;5081586;28;8879;-75
2023/06/16 11:21:21;;;;;;;;;33.80;31.80;;;;;15.03;83.88;98888.19;5081965;28;8854;-74
2023/06/16 11:23:52;;;;;;;;;36.80;33.20;;;;;15.17;82.63;98887.50;5077258;28;8864;-75
2023/06/16 11:26:21;;;;;;;;;36.20;32.40;;;;;15.27;83.13;98878.16;5084631;28;8848;-76
2023/06/16 11:28:53;;;;;;;;;34.00;31.20;;;;;15.40;83.05;98889.00;5080610;28;9014;-75
2023/06/16 11:31:21;;;;;;;;;34.60;32.60;;;;;15.33;82.17;98888.44;5071004;28;8886;-75
2023/06/16 11:33:54;;;;;;;;;38.40;34.60;;;;;15.47;81.47;98885.06;5090291;28;8848;-75
2023/06/16 11:36:25;;;;;;;;;30.00;29.00;;;;;15.50;81.95;98876.97;5091642;28;8871;-79
2023/06/16 11:38:56;;;;;;;;;36.00;33.60;;;;;15.52;82.33;98876.91;5085782;28;8866;-77
2023/06/16 11:41:27;;;;;;;;;40.20;35.40;;;;;15.61;81.02;98882.59;5122717;27;8852;-75
2023/06/16 11:43:56;;;;;;;;;32.80;31.80;;;;;15.86;79.71;98876.00;5090139;28;8961;-82